createdAt,value
2018-07-31T00:01:06.206Z,89.50
2018-07-31T00:03:35.363Z,89.60
2018-07-31T00:06:04.577Z,89.47
2018-07-31T00:08:33.646Z,89.70
2018-07-31T00:11:02.704Z,90.92
2018-07-31T00:13:31.861Z,91.03
2018-07-31T00:16:00.954Z,91.12
2018-07-31T00:18:30.083Z,89.34
2018-07-31T00:20:59.195Z,89.52
2018-07-31T00:23:28.241Z,89.64
2018-07-31T00:25:57.348Z,89.56
2018-07-31T00:28:26.416Z,89.89
2018-07-31T00:30:55.517Z,89.58
2018-07-31T00:33:24.586Z,89.60
2018-07-31T00:35:53.777Z,90.80
2018-07-31T00:38:23.143Z,90.46
2018-07-31T00:40:52.279Z,89.72
2018-07-31T00:43:21.326Z,89.60
2018-07-31T00:45:50.481Z,89.40
2018-07-31T00:48:19.592Z,89.99
2018-07-31T00:50:48.783Z,89.80
2018-07-31T00:53:17.912Z,90.40
2018-07-31T00:55:46.896Z,91.48
2018-07-31T00:58:15.995Z,91.48
2018-07-31T01:00:45.042Z,93.12
2018-07-31T01:03:14.193Z,92.25
2018-07-31T01:05:43.460Z,92.32
2018-07-31T01:08:12.558Z,91.52
2018-07-31T01:10:42.708Z,90.24
2018-07-31T01:13:12.239Z,90.04
2018-07-31T01:15:41.960Z,91.54
2018-07-31T01:18:11.364Z,90.73
2018-07-31T01:20:40.635Z,91.26
2018-07-31T01:23:10.070Z,90.86
2018-07-31T01:25:39.618Z,91.20
2018-07-31T01:28:09.000Z,91.04
2018-07-31T01:30:38.344Z,91.48
2018-07-31T01:33:07.662Z,91.98
2018-07-31T01:35:37.477Z,92.07
2018-07-31T01:38:06.822Z,91.93
2018-07-31T01:40:36.254Z,91.61
2018-07-31T01:43:05.681Z,91.45
2018-07-31T01:45:35.331Z,90.89
2018-07-31T01:48:04.657Z,91.49
2018-07-31T01:50:33.930Z,91.94
2018-07-31T01:53:03.338Z,91.50
2018-07-31T01:55:32.833Z,92.25
2018-07-31T01:58:02.147Z,91.79
2018-07-31T02:00:31.495Z,92.04
2018-07-31T02:03:00.683Z,91.66
2018-07-31T02:05:30.314Z,91.86
2018-07-31T02:07:59.996Z,91.53
2018-07-31T02:10:29.290Z,91.13
2018-07-31T02:12:58.338Z,91.22
2018-07-31T02:15:27.394Z,90.59
2018-07-31T02:17:56.365Z,91.14
2018-07-31T02:20:25.453Z,92.28
2018-07-31T02:22:54.489Z,91.89
2018-07-31T02:25:23.778Z,92.16
2018-07-31T02:27:52.784Z,92.12
2018-07-31T02:30:23.623Z,91.89
2018-07-31T02:32:53.121Z,92.06
2018-07-31T02:35:22.196Z,91.57
2018-07-31T02:37:51.231Z,92.79
2018-07-31T02:40:20.327Z,92.21
2018-07-31T02:42:49.346Z,92.21
2018-07-31T02:45:18.478Z,91.93
2018-07-31T02:47:47.611Z,92.42
2018-07-31T02:50:16.689Z,92.36
2018-07-31T02:52:45.634Z,91.61
2018-07-31T02:55:14.657Z,91.55
2018-07-31T02:57:44.016Z,92.84
2018-07-31T03:00:13.104Z,93.21
2018-07-31T03:02:42.678Z,92.86
2018-07-31T03:05:12.624Z,92.42
2018-07-31T03:07:42.140Z,92.95
2018-07-31T03:10:11.854Z,93.58
2018-07-31T03:12:41.415Z,92.40
2018-07-31T03:15:11.733Z,92.28
2018-07-31T03:17:41.209Z,92.90
2018-07-31T03:20:10.315Z,92.66
2018-07-31T03:22:39.443Z,93.00
2018-07-31T03:25:08.485Z,93.68
2018-07-31T03:27:37.491Z,93.96
2018-07-31T03:30:07.353Z,93.19
2018-07-31T03:32:36.323Z,93.21
2018-07-31T03:35:05.380Z,93.77
2018-07-31T03:37:34.590Z,93.48
2018-07-31T03:40:03.584Z,93.69
2018-07-31T03:42:32.698Z,92.90
2018-07-31T03:45:02.027Z,93.15
2018-07-31T03:47:31.086Z,92.77
2018-07-31T03:50:00.256Z,93.07
2018-07-31T03:52:29.269Z,93.75
2018-07-31T03:55:00.635Z,93.60
2018-07-31T03:57:29.740Z,93.79
2018-07-31T03:59:58.895Z,94.14
2018-07-31T04:02:27.906Z,93.29
2018-07-31T04:04:56.880Z,94.04
2018-07-31T04:07:25.925Z,94.89
2018-07-31T04:09:54.963Z,94.46
2018-07-31T04:12:23.932Z,94.22
2018-07-31T04:14:53.035Z,94.34
2018-07-31T04:17:22.149Z,93.92
2018-07-31T04:19:51.308Z,94.31
2018-07-31T04:22:20.345Z,95.09
2018-07-31T04:24:49.436Z,94.72
2018-07-31T04:27:18.452Z,94.94
2018-07-31T04:29:47.479Z,94.51
2018-07-31T04:32:16.850Z,95.41
2018-07-31T04:34:45.876Z,95.30
2018-07-31T04:37:15.304Z,94.66
2018-07-31T04:39:44.508Z,95.78
2018-07-31T04:42:13.797Z,95.73
2018-07-31T04:44:42.906Z,95.69
2018-07-31T04:47:11.872Z,95.38
2018-07-31T04:49:41.147Z,95.14
2018-07-31T04:52:10.407Z,94.90
2018-07-31T04:54:39.429Z,95.19
2018-07-31T04:57:09.023Z,95.90
2018-07-31T04:59:38.366Z,94.74
2018-07-31T05:02:07.396Z,94.28
2018-07-31T05:04:36.721Z,93.48
2018-07-31T05:07:06.131Z,92.74
2018-07-31T05:09:35.563Z,92.16
2018-07-31T05:12:04.607Z,90.22
2018-07-31T05:14:33.582Z,89.63
2018-07-31T05:17:02.627Z,90.60
2018-07-31T05:19:31.639Z,92.05
2018-07-31T05:22:01.886Z,92.27
2018-07-31T05:24:30.915Z,92.09
2018-07-31T05:26:59.992Z,90.29
2018-07-31T05:29:29.317Z,89.24
2018-07-31T05:31:58.320Z,87.55
2018-07-31T05:34:27.336Z,86.24
2018-07-31T05:36:56.390Z,86.09
2018-07-31T05:39:25.435Z,85.16
2018-07-31T05:41:54.525Z,85.21
2018-07-31T05:44:23.663Z,82.68
2018-07-31T05:46:52.691Z,82.89
2018-07-31T05:49:21.785Z,84.00
2018-07-31T05:51:51.568Z,83.48
2018-07-31T05:54:21.157Z,82.49
2018-07-31T05:56:50.134Z,81.70
2018-07-31T05:59:19.192Z,81.48
2018-07-31T06:01:48.307Z,79.22
2018-07-31T06:04:17.830Z,79.20
2018-07-31T06:06:46.999Z,79.72
2018-07-31T06:09:16.104Z,77.85
2018-07-31T06:11:45.483Z,78.60
2018-07-31T06:14:14.579Z,78.84
2018-07-31T06:16:44.035Z,79.24
2018-07-31T06:19:13.362Z,79.55
2018-07-31T06:21:42.439Z,78.31
2018-07-31T06:24:11.503Z,78.24
2018-07-31T06:26:40.695Z,79.96
2018-07-31T06:29:09.809Z,79.63
2018-07-31T06:31:38.998Z,76.86
2018-07-31T06:34:08.169Z,73.71
2018-07-31T06:36:37.227Z,73.28
2018-07-31T06:39:08.830Z,72.82
2018-07-31T06:41:37.974Z,72.96
2018-07-31T06:44:07.924Z,74.04
2018-07-31T06:46:37.321Z,74.34
2018-07-31T06:49:06.576Z,73.22
2018-07-31T06:51:36.039Z,74.19
2018-07-31T06:54:05.349Z,74.29
2018-07-31T06:56:34.468Z,73.14
2018-07-31T06:59:03.568Z,72.84
2018-07-31T07:01:32.909Z,74.82
2018-07-31T07:04:02.044Z,71.90
2018-07-31T07:06:31.157Z,73.03
2018-07-31T07:09:00.200Z,72.70
2018-07-31T07:11:29.479Z,71.45
2018-07-31T07:13:58.534Z,71.95
2018-07-31T07:16:27.762Z,70.40
2018-07-31T07:18:56.933Z,68.36
2018-07-31T07:21:25.897Z,65.22
2018-07-31T07:23:54.957Z,65.40
2018-07-31T07:26:24.110Z,62.81
2018-07-31T07:28:53.902Z,65.54
2018-07-31T07:31:23.364Z,68.11
2018-07-31T07:33:52.653Z,66.20
2018-07-31T07:36:21.859Z,68.14
2018-07-31T07:38:50.990Z,67.56
2018-07-31T07:41:20.425Z,67.51
2018-07-31T07:43:49.554Z,66.38
2018-07-31T07:46:18.563Z,64.93
2018-07-31T07:48:47.637Z,64.68
2018-07-31T07:51:16.707Z,63.34
2018-07-31T07:53:45.892Z,65.76
2018-07-31T07:56:16.056Z,62.84
2018-07-31T07:58:45.438Z,63.20
2018-07-31T08:01:14.884Z,62.00
2018-07-31T08:03:44.203Z,64.33
2018-07-31T08:06:13.619Z,63.01
2018-07-31T08:08:42.603Z,61.66
2018-07-31T08:11:11.639Z,61.77
2018-07-31T08:13:41.275Z,62.03
2018-07-31T08:16:10.464Z,60.21
2018-07-31T08:18:39.627Z,62.48
2018-07-31T08:21:08.726Z,61.22
2018-07-31T08:23:37.837Z,60.75
2018-07-31T08:26:07.219Z,60.31
2018-07-31T08:28:36.385Z,61.48
2018-07-31T08:31:06.019Z,57.93
2018-07-31T08:33:35.131Z,58.98
2018-07-31T08:36:04.312Z,56.32
2018-07-31T08:38:33.444Z,56.33
2018-07-31T08:41:05.594Z,56.02
2018-07-31T08:43:35.032Z,56.86
2018-07-31T08:46:04.139Z,55.64
2018-07-31T08:48:33.344Z,55.75
2018-07-31T08:51:02.427Z,54.56
2018-07-31T08:53:31.707Z,55.30
2018-07-31T08:56:00.778Z,54.38
2018-07-31T08:58:29.969Z,53.65
2018-07-31T09:00:59.001Z,52.10
2018-07-31T09:03:28.155Z,53.11
2018-07-31T09:05:57.193Z,54.21
2018-07-31T09:08:26.441Z,53.10
2018-07-31T09:10:55.634Z,52.38
2018-07-31T09:13:24.756Z,54.32
2018-07-31T09:15:53.847Z,54.89
2018-07-31T09:18:22.910Z,54.38
2018-07-31T09:20:51.932Z,52.08
2018-07-31T09:23:21.313Z,53.64
2018-07-31T09:25:50.436Z,51.20
2018-07-31T09:28:19.878Z,54.24
2018-07-31T09:31:24.331Z,51.42
2018-07-31T09:33:54.050Z,50.19
2018-07-31T09:36:23.251Z,51.28
2018-07-31T09:38:52.274Z,47.80
2018-07-31T09:41:21.395Z,48.50
2018-07-31T09:43:50.646Z,49.89
2018-07-31T09:46:19.754Z,44.94
2018-07-31T09:48:48.792Z,47.26
2018-07-31T09:51:17.965Z,45.89
2018-07-31T09:53:47.569Z,44.67
2018-07-31T09:56:17.627Z,44.11
2018-07-31T09:58:47.267Z,43.30
2018-07-31T10:01:19.630Z,45.97
2018-07-31T10:03:49.472Z,47.41
2018-07-31T10:06:18.641Z,47.00
2018-07-31T10:08:48.299Z,46.72
2018-07-31T10:11:18.747Z,46.83
2018-07-31T10:13:47.956Z,45.75
2018-07-31T10:16:17.368Z,44.54
2018-07-31T10:18:46.527Z,39.28
2018-07-31T10:21:15.655Z,39.63
2018-07-31T10:23:45.507Z,40.40
2018-07-31T10:26:14.624Z,41.19
2018-07-31T10:28:44.214Z,41.14
2018-07-31T10:31:13.313Z,36.64
2018-07-31T10:33:42.510Z,39.28
2018-07-31T10:36:11.545Z,43.01
2018-07-31T10:38:40.679Z,39.69
2018-07-31T10:41:09.842Z,38.86
2018-07-31T10:43:39.884Z,37.97
2018-07-31T10:46:10.468Z,38.79
2018-07-31T10:48:39.809Z,35.28
2018-07-31T10:51:09.890Z,36.66
2018-07-31T10:53:39.925Z,39.00
2018-07-31T10:56:09.227Z,37.32
2018-07-31T10:58:38.568Z,35.22
2018-07-31T11:01:07.777Z,38.34
2018-07-31T11:03:36.846Z,36.62
2018-07-31T11:06:05.994Z,38.78
2018-07-31T11:08:35.072Z,37.29
2018-07-31T11:11:04.290Z,36.83
2018-07-31T11:13:33.828Z,36.77
2018-07-31T11:16:03.043Z,37.63
2018-07-31T11:18:32.347Z,36.26
2018-07-31T11:21:01.637Z,36.88
2018-07-31T11:23:30.959Z,38.62
2018-07-31T11:26:00.181Z,36.80
2018-07-31T11:28:29.637Z,38.05
2018-07-31T11:30:59.217Z,37.96
2018-07-31T11:33:28.381Z,37.04
2018-07-31T11:35:58.107Z,34.38
2018-07-31T11:38:27.275Z,35.65
2018-07-31T11:40:56.319Z,33.86
2018-07-31T11:43:25.400Z,34.22
2018-07-31T11:45:54.507Z,33.06
2018-07-31T11:48:23.895Z,32.12
2018-07-31T11:50:53.018Z,31.24
2018-07-31T11:53:22.620Z,31.32
2018-07-31T11:55:52.062Z,32.17
2018-07-31T11:58:21.173Z,33.75
2018-07-31T12:00:50.424Z,33.19
2018-07-31T12:03:19.522Z,33.25
2018-07-31T12:05:48.668Z,35.48
2018-07-31T12:08:17.853Z,31.10
2018-07-31T12:10:47.825Z,33.71
2018-07-31T12:13:17.019Z,31.95
2018-07-31T12:15:46.186Z,31.79
2018-07-31T12:18:15.463Z,33.88
2018-07-31T12:20:45.570Z,30.44
2018-07-31T12:23:14.850Z,30.49
2018-07-31T12:25:44.079Z,31.59
2018-07-31T12:28:13.254Z,31.85
2018-07-31T12:30:42.898Z,31.54
2018-07-31T12:33:12.198Z,31.32
2018-07-31T12:35:41.431Z,32.76
2018-07-31T12:38:11.033Z,31.49
2018-07-31T12:40:40.139Z,32.50
2018-07-31T12:43:10.310Z,31.44
2018-07-31T12:45:39.481Z,32.98
2018-07-31T12:48:08.676Z,33.58
2018-07-31T12:50:37.691Z,32.38
2018-07-31T12:53:07.002Z,33.01
2018-07-31T12:55:36.761Z,33.15
2018-07-31T12:58:05.969Z,32.41
2018-07-31T13:00:35.259Z,34.49
2018-07-31T13:03:04.718Z,32.94
2018-07-31T13:05:33.791Z,33.26
2018-07-31T13:08:02.805Z,33.65
2018-07-31T13:10:32.863Z,33.14
2018-07-31T13:13:01.936Z,33.48
2018-07-31T13:15:30.934Z,33.02
2018-07-31T13:17:59.910Z,32.30
2018-07-31T13:20:29.018Z,34.04
2018-07-31T13:22:58.157Z,34.30
2018-07-31T13:25:27.212Z,31.75
2018-07-31T13:27:56.413Z,33.26
2018-07-31T13:30:25.477Z,32.39
2018-07-31T13:32:54.570Z,32.26
2018-07-31T13:35:23.664Z,31.07
2018-07-31T13:37:53.310Z,32.99
2018-07-31T13:40:22.468Z,31.58
2018-07-31T13:42:51.516Z,30.26
2018-07-31T13:45:20.793Z,31.96
2018-07-31T13:47:49.912Z,31.72
2018-07-31T13:50:19.029Z,31.38
2018-07-31T13:52:48.009Z,31.69
2018-07-31T13:55:17.202Z,33.28
2018-07-31T13:57:46.212Z,31.22
2018-07-31T14:00:15.373Z,29.43
2018-07-31T14:02:44.479Z,29.52
2018-07-31T14:05:13.499Z,31.17
2018-07-31T14:07:42.833Z,31.29
2018-07-31T14:10:11.852Z,30.60
2018-07-31T14:12:41.140Z,29.76
2018-07-31T14:15:10.368Z,30.92
2018-07-31T14:17:39.633Z,30.25
2018-07-31T14:20:08.744Z,30.69
2018-07-31T14:22:37.864Z,30.73
2018-07-31T14:25:07.009Z,29.55
2018-07-31T14:27:36.402Z,29.31
2018-07-31T14:30:07.072Z,30.20
2018-07-31T14:32:36.527Z,30.37
2018-07-31T14:35:05.731Z,31.42
2018-07-31T14:37:34.968Z,31.61
2018-07-31T14:40:04.151Z,29.72
2018-07-31T14:42:33.161Z,28.16
2018-07-31T14:45:02.264Z,27.61
2018-07-31T14:47:31.542Z,28.08
2018-07-31T14:50:01.065Z,28.72
2018-07-31T14:52:30.160Z,30.09
2018-07-31T14:54:59.235Z,30.98
2018-07-31T14:57:28.943Z,30.92
2018-07-31T14:59:58.011Z,29.57
2018-07-31T15:02:27.049Z,28.51
2018-07-31T15:04:56.334Z,31.03
2018-07-31T15:07:25.375Z,31.07
2018-07-31T15:09:54.653Z,32.44
2018-07-31T15:12:23.731Z,32.56
2018-07-31T15:14:53.124Z,31.98
2018-07-31T15:17:22.389Z,31.54
2018-07-31T15:19:51.469Z,31.73
2018-07-31T15:22:20.492Z,34.79
2018-07-31T15:24:49.570Z,33.49
2018-07-31T15:27:18.694Z,33.84
2018-07-31T15:29:47.807Z,33.17
2018-07-31T15:32:16.875Z,35.11
2018-07-31T15:34:45.997Z,36.93
2018-07-31T15:37:15.498Z,36.67
2018-07-31T15:39:44.616Z,39.04
2018-07-31T15:42:14.182Z,38.61
2018-07-31T15:44:43.276Z,39.62
2018-07-31T15:47:12.309Z,38.64
2018-07-31T15:49:41.458Z,37.06
2018-07-31T15:52:10.758Z,36.63
2018-07-31T15:54:39.822Z,37.41
2018-07-31T15:57:08.918Z,37.49
2018-07-31T15:59:38.098Z,38.24
2018-07-31T16:02:07.987Z,39.67
2018-07-31T16:04:37.069Z,38.75
2018-07-31T16:07:06.239Z,40.53
2018-07-31T16:09:35.316Z,39.99
2018-07-31T16:12:04.312Z,41.49
2018-07-31T16:14:33.565Z,40.43
2018-07-31T16:17:03.338Z,39.75
2018-07-31T16:19:32.344Z,43.32
2018-07-31T16:22:01.404Z,44.16
2018-07-31T16:24:31.257Z,43.70
2018-07-31T16:27:01.060Z,42.97
2018-07-31T16:29:31.451Z,43.23
2018-07-31T16:32:00.860Z,43.83
2018-07-31T16:34:30.447Z,45.19
2018-07-31T16:36:59.486Z,43.83
2018-07-31T16:39:28.668Z,44.17
2018-07-31T16:41:58.072Z,43.73
2018-07-31T16:44:27.230Z,41.77
2018-07-31T16:46:56.405Z,43.04
2018-07-31T16:49:27.521Z,43.25
2018-07-31T16:51:56.529Z,42.58
2018-07-31T16:54:26.417Z,44.32
2018-07-31T16:56:55.576Z,45.04
2018-07-31T16:59:24.714Z,44.32
2018-07-31T17:01:53.831Z,44.85
2018-07-31T17:04:22.872Z,45.64
2018-07-31T17:06:51.994Z,44.96
2018-07-31T17:09:21.022Z,45.52
2018-07-31T17:11:51.064Z,45.39
2018-07-31T17:14:20.907Z,46.42
2018-07-31T17:16:49.999Z,48.40
2018-07-31T17:19:19.040Z,49.01
2018-07-31T17:21:48.107Z,48.01
2018-07-31T17:24:17.163Z,47.40
2018-07-31T17:26:46.308Z,47.94
2018-07-31T17:29:15.382Z,48.73
2018-07-31T17:31:44.429Z,49.01
2018-07-31T17:34:13.477Z,49.06
2018-07-31T17:36:42.834Z,50.07
2018-07-31T17:39:12.425Z,49.75
2018-07-31T17:41:42.204Z,48.15
2018-07-31T17:44:11.227Z,49.56
2018-07-31T17:46:40.292Z,49.08
2018-07-31T17:49:09.504Z,47.27
2018-07-31T17:51:38.669Z,47.59
2018-07-31T17:54:08.156Z,48.49
2018-07-31T17:56:37.986Z,48.57
2018-07-31T17:59:07.120Z,49.46
2018-07-31T18:01:36.186Z,50.70
2018-07-31T18:04:05.878Z,50.90
2018-07-31T18:06:34.905Z,51.72
2018-07-31T18:09:04.206Z,52.08
2018-07-31T18:11:33.935Z,52.92
2018-07-31T18:14:03.194Z,54.32
2018-07-31T18:16:33.621Z,52.04
2018-07-31T18:19:04.863Z,51.65
2018-07-31T18:21:37.480Z,52.63
2018-07-31T18:24:07.291Z,53.71
2018-07-31T18:26:36.909Z,53.82
2018-07-31T18:29:06.903Z,55.29
2018-07-31T18:31:36.107Z,55.44
2018-07-31T18:34:05.871Z,54.35
2018-07-31T18:36:36.306Z,53.07
2018-07-31T18:39:08.368Z,52.93
2018-07-31T18:41:37.565Z,53.47
2018-07-31T18:44:06.847Z,54.77
2018-07-31T18:46:36.085Z,54.57
2018-07-31T18:49:05.284Z,54.34
2018-07-31T18:51:34.769Z,54.47
2018-07-31T18:54:04.330Z,55.60
2018-07-31T18:56:34.687Z,55.16
2018-07-31T18:59:04.124Z,55.61
2018-07-31T19:01:34.708Z,55.82
2018-07-31T19:04:03.980Z,57.32
2018-07-31T19:06:33.173Z,57.80
2018-07-31T19:09:02.461Z,56.99
2018-07-31T19:11:31.707Z,57.74
2018-07-31T19:14:00.816Z,57.21
2018-07-31T19:16:29.892Z,59.07
2018-07-31T19:18:59.324Z,60.03
2018-07-31T19:21:29.765Z,62.89
2018-07-31T19:23:59.412Z,61.88
2018-07-31T19:26:29.351Z,61.04
2018-07-31T19:28:58.632Z,60.79
2018-07-31T19:31:28.809Z,61.68
2018-07-31T19:33:58.155Z,62.08
2018-07-31T19:36:27.341Z,61.17
2018-07-31T19:38:57.321Z,61.34
2018-07-31T19:41:28.659Z,62.04
2018-07-31T19:43:58.251Z,62.36
2018-07-31T19:46:28.080Z,61.70
2018-07-31T19:48:57.438Z,61.92
2018-07-31T19:51:27.157Z,62.26
2018-07-31T19:53:56.527Z,61.98
2018-07-31T19:56:26.102Z,63.15
2018-07-31T19:58:55.416Z,65.15
2018-07-31T20:01:24.784Z,63.73
2018-07-31T20:03:56.775Z,64.25
2018-07-31T20:06:26.972Z,63.90
2018-07-31T20:08:58.793Z,65.94
2018-07-31T20:11:29.114Z,67.65
2018-07-31T20:13:58.835Z,68.52
2018-07-31T20:16:28.507Z,67.90
2018-07-31T20:18:57.687Z,67.53
2018-07-31T20:21:26.979Z,68.04
2018-07-31T20:23:56.272Z,66.88
2018-07-31T20:26:25.625Z,65.88
2018-07-31T20:28:55.026Z,65.87
2018-07-31T20:31:25.242Z,67.35
2018-07-31T20:33:54.359Z,68.24
2018-07-31T20:36:24.891Z,69.12
2018-07-31T20:38:53.983Z,69.52
2018-07-31T20:41:23.227Z,68.83
2018-07-31T20:43:52.481Z,70.46
2018-07-31T20:46:21.684Z,70.06
2018-07-31T20:48:51.436Z,69.99
2018-07-31T20:51:24.313Z,69.70
2018-07-31T20:53:53.426Z,70.45
2018-07-31T20:56:22.596Z,71.69
2018-07-31T20:58:51.955Z,70.43
2018-07-31T21:01:21.858Z,69.34
2018-07-31T21:03:51.033Z,69.61
2018-07-31T21:06:20.281Z,71.05
2018-07-31T21:08:49.590Z,73.49
2018-07-31T21:11:19.060Z,73.13
2018-07-31T21:13:48.202Z,71.98
2018-07-31T21:16:17.405Z,70.94
2018-07-31T21:18:46.946Z,70.82
2018-07-31T21:21:16.096Z,71.75
2018-07-31T21:23:45.272Z,73.27
2018-07-31T21:26:14.488Z,73.43
2018-07-31T21:28:43.718Z,73.36
2018-07-31T21:31:13.005Z,72.95
2018-07-31T21:33:42.102Z,72.79
2018-07-31T21:36:11.168Z,73.00
2018-07-31T21:38:40.242Z,73.75
2018-07-31T21:41:10.721Z,73.64
2018-07-31T21:43:39.898Z,73.73
2018-07-31T21:46:09.000Z,74.98
2018-07-31T21:48:38.738Z,75.65
2018-07-31T21:51:07.817Z,75.50
2018-07-31T21:53:37.113Z,73.88
2018-07-31T21:56:06.164Z,73.93
2018-07-31T21:58:35.347Z,74.62
2018-07-31T22:01:07.984Z,73.81
2018-07-31T22:03:38.909Z,76.29
2018-07-31T22:06:08.277Z,75.46
2018-07-31T22:08:38.087Z,74.18
2018-07-31T22:11:07.428Z,75.83
2018-07-31T22:13:36.507Z,75.90
2018-07-31T22:16:06.497Z,76.20
2018-07-31T22:18:35.743Z,75.92
2018-07-31T22:21:04.923Z,76.78
2018-07-31T22:23:34.003Z,76.18
2018-07-31T22:26:03.059Z,76.74
2018-07-31T22:28:32.215Z,76.72
2018-07-31T22:31:01.225Z,76.42
2018-07-31T22:33:30.346Z,76.83
2018-07-31T22:35:59.417Z,75.92
2018-07-31T22:38:28.651Z,77.27
2018-07-31T22:40:57.823Z,77.61
2018-07-31T22:43:27.069Z,77.08
2018-07-31T22:45:56.126Z,78.77
2018-07-31T22:48:25.200Z,78.89
2018-07-31T22:50:54.315Z,78.53
2018-07-31T22:53:23.387Z,77.39
2018-07-31T22:55:52.547Z,79.91
2018-07-31T22:58:21.597Z,79.10
2018-07-31T23:00:50.819Z,78.86
2018-07-31T23:03:19.816Z,79.20
2018-07-31T23:05:48.900Z,77.91
2018-07-31T23:08:17.959Z,77.99
2018-07-31T23:10:46.970Z,78.69
2018-07-31T23:13:16.269Z,78.51
2018-07-31T23:15:45.470Z,78.11
2018-07-31T23:18:14.579Z,78.41
2018-07-31T23:20:43.710Z,79.88
2018-07-31T23:23:12.731Z,79.55
2018-07-31T23:25:41.920Z,79.99
2018-07-31T23:28:10.908Z,80.18
2018-07-31T23:30:40.248Z,79.98
2018-07-31T23:33:09.287Z,80.10
2018-07-31T23:35:38.567Z,79.97
2018-07-31T23:38:08.420Z,79.43
2018-07-31T23:40:37.570Z,80.26
2018-07-31T23:43:06.655Z,81.26
2018-07-31T23:45:35.782Z,79.71
2018-07-31T23:48:04.811Z,80.92
2018-07-31T23:50:33.829Z,80.53
2018-07-31T23:53:02.986Z,80.71
2018-07-31T23:55:32.021Z,82.57
2018-07-31T23:58:01.137Z,83.87
